Time;durP1;ratioP1;P1;durP2;ratioP2;P2;SDS_P1;SDS_P2;PMS_P1;PMS_P2;Temp;Humidity;BMP_temperature;BMP_pressure;BME280_temperature;BME280_humidity;BME280_pressure;Samples;Min_cycle;Max_cycle;Signal;HPM_P1;HPM_P2
2022/09/02 00:01:18;;;;;;;4.13;1.45;;;;;;;14.24;50.66;101619.44;5010855;28;20076;-69
2022/09/02 00:03:46;;;;;;;1.70;1.13;;;;;;;14.23;50.63;101614.22;5010157;28;20093;-69
2022/09/02 00:06:14;;;;;;;4.57;1.30;;;;;;;14.20;50.58;101617.22;5004302;28;20489;-69
2022/09/02 00:08:42;;;;;;;5.82;1.50;;;;;;;14.16;50.55;101618.56;5011708;28;20062;-69
2022/09/02 00:11:15;;;;;;;5.50;1.42;;;;;;;14.21;50.51;101618.91;5011254;28;20128;-69
2022/09/02 00:13:42;;;;;;;2.35;1.23;;;;;;;14.05;51.02;101615.13;5009951;28;20130;-69
2022/09/02 00:16:10;;;;;;;2.70;1.00;;;;;;;13.91;51.31;101614.88;5010967;28;20129;-69
2022/09/02 00:18:38;;;;;;;4.07;1.20;;;;;;;14.01;51.17;101610.22;5012086;28;20117;-69
2022/09/02 00:21:12;;;;;;;8.25;1.95;;;;;;;14.09;50.88;101615.66;5011462;28;20479;-69
2022/09/02 00:23:41;;;;;;;3.97;1.23;;;;;;;14.15;50.83;101606.94;5010741;28;20111;-69
2022/09/02 00:26:07;;;;;;;1.65;1.15;;;;;;;14.25;50.84;101617.56;5010622;28;20081;-70
2022/09/02 00:28:34;;;;;;;6.03;1.23;;;;;;;14.23;50.45;101614.22;5010176;28;20129;-69
2022/09/02 00:31:01;;;;;;;5.43;1.45;;;;;;;14.33;50.11;101611.38;5010519;28;20076;-70
2022/09/02 00:33:27;;;;;;;2.03;1.05;;;;;;;14.32;50.23;101613.22;5010876;28;20073;-70
2022/09/02 00:35:54;;;;;;;2.35;1.23;;;;;;;14.27;50.41;101612.88;5010048;28;20045;-72
2022/09/02 00:38:21;;;;;;;2.80;1.05;;;;;;;14.37;50.05;101602.78;5010292;28;20065;-70
2022/09/02 00:40:49;;;;;;;9.20;1.40;;;;;;;14.33;50.32;101597.88;5010309;28;20050;-70
2022/09/02 00:43:42;;;;;;;2.65;1.10;;;;;;;14.19;50.69;101600.19;5011527;28;20042;-69
2022/09/02 00:46:10;;;;;;;2.53;1.33;;;;;;;14.24;50.37;101608.63;5010344;28;20069;-70
2022/09/02 00:48:42;;;;;;;4.72;1.40;;;;;;;14.28;50.53;101598.34;5010533;28;20072;-70
2022/09/02 00:51:10;;;;;;;1.95;1.00;;;;;;;14.28;50.46;101595.66;5010715;28;20088;-70
2022/09/02 00:53:39;;;;;;;2.47;1.10;;;;;;;14.27;50.48;101593.97;5004569;28;20434;-70
2022/09/02 00:56:14;;;;;;;3.22;1.30;;;;;;;14.29;50.28;101598.22;5011093;28;20185;-70
2022/09/02 00:58:42;;;;;;;5.68;1.40;;;;;;;14.44;50.09;101600.28;5015128;28;20125;-70
2022/09/02 01:01:10;;;;;;;2.17;1.10;;;;;;;14.28;50.44;101593.78;5009938;28;20042;-70
2022/09/02 01:03:39;;;;;;;1.67;1.10;;;;;;;14.12;50.85;101593.75;5010333;28;20459;-70
2022/09/02 01:09:46;;;;;;;2.38;1.17;;;;;;;14.22;50.54;101582.81;5009996;28;20125;-70
2022/09/02 01:12:15;;;;;;;1.65;1.10;;;;;;;14.26;50.28;101589.59;5013587;28;20132;-70
2022/09/02 01:14:41;;;;;;;3.03;1.10;;;;;;;14.38;50.11;101587.44;5013947;28;20406;-70
2022/09/02 01:17:08;;;;;;;3.13;1.23;;;;;;;14.06;50.68;101586.31;5014342;28;20125;-70
2022/09/02 01:19:39;;;;;;;1.83;1.05;;;;;;;14.30;50.08;101583.69;5014366;28;20066;-68
2022/09/02 01:22:16;;;;;;;2.70;1.15;;;;;;;14.31;50.19;101587.22;5014565;28;20457;-69
2022/09/02 01:24:43;;;;;;;4.18;1.08;;;;;;;14.25;50.27;101579.78;5014047;28;20545;-70
2022/09/02 01:27:14;;;;;;;3.95;1.20;;;;;;;14.45;49.79;101583.06;5013405;28;20129;-70
2022/09/02 01:29:40;;;;;;;4.85;1.42;;;;;;;14.20;50.42;101577.59;5014278;28;20553;-70
2022/09/02 01:32:07;;;;;;;4.93;1.40;;;;;;;14.38;49.80;101587.44;5014069;28;20042;-69
2022/09/02 01:34:33;;;;;;;6.10;1.23;;;;;;;14.14;50.35;101583.63;5012512;28;20044;-69
2022/09/02 01:37:00;;;;;;;2.40;1.20;;;;;;;14.00;50.72;101579.69;5021935;28;20125;-69
2022/09/02 01:39:27;;;;;;;2.38;1.00;;;;;;;14.06;50.29;101580.91;5013749;28;20080;-69
2022/09/02 01:41:53;;;;;;;2.05;0.98;;;;;;;14.04;50.32;101582.91;5009384;28;20141;-69
2022/09/02 01:44:20;;;;;;;2.85;1.23;;;;;;;13.87;50.87;101584.69;5013821;28;20137;-69
2022/09/02 01:46:47;;;;;;;2.03;0.82;;;;;;;13.83;51.00;101586.84;5014004;28;20166;-69
2022/09/02 01:49:13;;;;;;;1.55;0.90;;;;;;;13.98;50.80;101579.03;5010609;28;20042;-69
2022/09/02 01:51:40;;;;;;;2.80;1.30;;;;;;;13.85;50.98;101588.56;5012610;28;20129;-69
2022/09/02 01:54:06;;;;;;;3.33;1.10;;;;;;;13.85;51.00;101586.72;5013500;28;20462;-69
2022/09/02 01:56:33;;;;;;;2.03;0.90;;;;;;;13.85;51.07;101581.31;5013501;28;20137;-69
2022/09/02 01:59:01;;;;;;;2.08;1.00;;;;;;;13.85;51.15;101577.78;5012802;28;20048;-69
2022/09/02 02:01:28;;;;;;;4.20;1.08;;;;;;;13.76;51.19;101576.88;5014315;28;20046;-69
2022/09/02 02:03:54;;;;;;;3.78;1.00;;;;;;;13.54;51.90;101570.16;5012808;28;20045;-69
2022/09/02 02:06:21;;;;;;;3.45;0.98;;;;;;;13.34;52.63;101574.91;5004745;28;20461;-69
2022/09/02 02:08:48;;;;;;;2.65;1.33;;;;;;;13.54;52.22;101575.53;5013412;28;20048;-69
2022/09/02 02:11:23;;;;;;;2.17;1.02;;;;;;;13.45;52.33;101573.78;5008930;28;20069;-69
2022/09/02 02:13:49;;;;;;;2.38;1.25;;;;;;;13.23;53.01;101577.84;5011955;28;20074;-69
2022/09/02 02:16:16;;;;;;;1.98;1.15;;;;;;;13.24;52.71;101583.06;5004132;28;20128;-69
2022/09/02 02:18:42;;;;;;;3.78;1.50;;;;;;;13.37;52.79;101571.06;5012946;28;20046;-69
2022/09/02 02:21:10;;;;;;;5.53;1.20;;;;;;;13.28;52.81;101572.81;5013828;28;20073;-70
2022/09/02 02:23:36;;;;;;;1.17;1.00;;;;;;;13.24;52.72;101566.06;5012417;28;20076;-70
2022/09/02 02:26:03;;;;;;;2.83;1.17;;;;;;;13.16;53.09;101574.94;5013436;28;20067;-70
2022/09/02 02:28:29;;;;;;;5.28;1.38;;;;;;;13.13;53.31;101571.72;5013351;28;20072;-70
2022/09/02 02:30:58;;;;;;;3.40;1.23;;;;;;;13.18;53.00;101574.78;5012794;28;20073;-69
2022/09/02 02:33:27;;;;;;;5.20;1.13;;;;;;;13.19;53.26;101574.63;5005220;28;20046;-70
2022/09/02 02:36:04;;;;;;;2.88;1.50;;;;;;;13.00;53.63;101570.25;5012488;28;20042;-70
2022/09/02 02:38:32;;;;;;;8.07;1.35;;;;;;;13.19;53.23;101561.16;5012908;28;20113;-70
2022/09/02 02:41:00;;;;;;;2.00;1.13;;;;;;;13.17;53.32;101573.94;5013148;28;20064;-70
2022/09/02 02:43:27;;;;;;;4.10;1.30;;;;;;;13.09;53.69;101572.03;5012636;28;20132;-70
2022/09/02 02:45:53;;;;;;;3.85;1.17;;;;;;;13.05;53.75;101575.19;5012474;28;20048;-70
2022/09/02 02:48:21;;;;;;;5.38;1.27;;;;;;;13.16;53.46;101558.78;5012533;28;20076;-70
2022/09/02 02:50:47;;;;;;;6.40;1.40;;;;;;;13.05;53.64;101565.25;5012501;28;20074;-70
2022/09/02 02:53:16;;;;;;;3.88;1.50;;;;;;;13.06;53.86;101563.41;5012151;28;20073;-70
2022/09/02 02:55:43;;;;;;;2.40;1.20;;;;;;;13.34;53.07;101570.34;5011827;28;20481;-70
2022/09/02 02:58:15;;;;;;;5.00;1.38;;;;;;;13.22;53.26;101563.53;5012355;28;20046;-70
2022/09/02 03:00:45;;;;;;;4.22;1.00;;;;;;;13.13;53.57;101564.47;5011769;28;20400;-69
2022/09/02 03:03:11;;;;;;;3.00;1.33;;;;;;;13.09;53.75;101566.63;5011938;28;20093;-69
2022/09/02 03:05:38;;;;;;;4.15;1.35;;;;;;;13.15;53.64;101561.63;5011866;28;20049;-70
2022/09/02 03:08:07;;;;;;;3.75;1.70;;;;;;;13.17;53.45;101573.09;5012065;28;20056;-69
2022/09/02 03:10:35;;;;;;;3.90;1.33;;;;;;;13.11;53.94;101563.78;5011598;28;20060;-70
2022/09/02 03:13:02;;;;;;;1.80;1.30;;;;;;;13.11;53.83;101571.84;5013107;28;20096;-69
2022/09/02 03:15:29;;;;;;;1.67;1.00;;;;;;;13.09;53.82;101565.78;5011414;28;20133;-69
2022/09/02 03:17:55;;;;;;;6.38;1.80;;;;;;;12.97;54.37;101562.50;5011862;28;20050;-69
2022/09/02 03:20:23;;;;;;;3.35;1.63;;;;;;;13.02;54.34;101554.78;5012284;28;20508;-69
2022/09/02 03:22:54;;;;;;;5.88;1.45;;;;;;;12.86;54.70;101552.78;5010222;28;20128;-69
2022/09/02 03:25:22;;;;;;;6.63;1.60;;;;;;;12.93;54.36;101555.72;5011471;28;20530;-70
2022/09/02 03:27:50;;;;;;;2.92;1.20;;;;;;;12.96;54.49;101554.56;5012055;28;20048;-70
2022/09/02 03:30:24;;;;;;;5.97;1.30;;;;;;;12.85;54.49;101559.19;5012404;28;20137;-69
2022/09/02 03:32:55;;;;;;;6.43;1.20;;;;;;;12.91;54.52;101554.19;5011431;28;20124;-69
2022/09/02 03:35:27;;;;;;;3.33;1.38;;;;;;;12.87;54.64;101550.97;5004144;28;20108;-69
2022/09/02 03:37:54;;;;;;;2.38;1.40;;;;;;;12.87;54.58;101559.91;5011927;28;20064;-69
2022/09/02 03:40:25;;;;;;;7.70;1.60;;;;;;;12.84;54.53;101551.28;5011561;28;20057;-69
2022/09/02 03:42:52;;;;;;;4.85;1.67;;;;;;;12.80;54.74;101552.56;5010718;28;20050;-69
2022/09/02 03:45:25;;;;;;;5.65;1.60;;;;;;;12.74;55.01;101553.19;5011266;28;20771;-69
2022/09/02 03:47:54;;;;;;;1.50;1.10;;;;;;;12.75;55.03;101546.81;5011023;28;20134;-69
2022/09/02 03:50:28;;;;;;;3.95;1.52;;;;;;;12.77;54.95;101542.97;5014536;28;20476;-70
2022/09/02 03:52:56;;;;;;;4.03;1.75;;;;;;;12.74;55.03;101558.56;5012425;28;20137;-69
2022/09/02 03:55:23;;;;;;;1.80;1.23;;;;;;;12.64;55.23;101545.16;5011450;28;20074;-69
2022/09/02 03:57:49;;;;;;;3.70;1.25;;;;;;;12.69;55.26;101548.22;5011465;28;20049;-69
2022/09/02 04:00:19;;;;;;;6.60;1.63;;;;;;;12.72;55.23;101549.78;5010875;28;20141;-69
2022/09/02 04:02:46;;;;;;;5.85;1.67;;;;;;;12.76;54.99;101549.34;5007111;28;20138;-69
2022/09/02 04:05:16;;;;;;;5.85;1.55;;;;;;;12.72;55.13;101555.16;5010936;28;20375;-69
2022/09/02 04:07:44;;;;;;;3.95;1.50;;;;;;;12.60;55.61;101549.19;5011166;28;20124;-69
2022/09/02 04:10:13;;;;;;;3.55;1.42;;;;;;;12.82;54.96;101556.81;5010609;28;20046;-69
2022/09/02 04:12:40;;;;;;;5.30;1.58;;;;;;;12.77;55.20;101551.06;5011216;28;20129;-70
2022/09/02 04:15:08;;;;;;;6.55;1.63;;;;;;;12.76;55.17;101553.88;5011567;28;20430;-69
2022/09/02 04:17:37;;;;;;;3.22;1.58;;;;;;;12.72;55.36;101557.84;5011210;28;20125;-69
2022/09/02 04:20:06;;;;;;;6.78;1.48;;;;;;;12.64;55.58;101559.47;5011375;28;20148;-69
2022/09/02 04:22:32;;;;;;;8.60;1.60;;;;;;;12.65;55.68;101557.63;5011674;28;20116;-69
2022/09/02 04:24:59;;;;;;;6.53;1.70;;;;;;;12.75;55.32;101554.88;5011248;28;20065;-69
2022/09/02 04:27:26;;;;;;;2.60;1.77;;;;;;;12.64;55.63;101558.63;4999247;28;20069;-70
2022/09/02 04:29:52;;;;;;;8.60;1.52;;;;;;;12.49;56.19;101561.00;5012409;28;20136;-70
2022/09/02 04:32:20;;;;;;;2.97;1.50;;;;;;;12.58;56.02;101556.53;5010712;28;20046;-69
2022/09/02 04:34:47;;;;;;;6.07;1.60;;;;;;;12.63;55.91;101560.47;5010899;28;20400;-68
2022/09/02 04:37:15;;;;;;;2.67;1.40;;;;;;;12.58;56.01;101561.94;5017017;28;20053;-68
2022/09/02 04:39:42;;;;;;;6.40;2.30;;;;;;;12.58;56.09;101556.53;5011019;28;20133;-69
2022/09/02 04:42:08;;;;;;;5.70;2.10;;;;;;;12.60;55.94;101552.72;5010552;28;20053;-68
2022/09/02 04:44:35;;;;;;;9.55;1.58;;;;;;;12.70;56.03;101557.19;5011414;28;20136;-70
2022/09/02 04:47:01;;;;;;;3.70;1.65;;;;;;;12.76;55.67;101560.09;5013315;28;20460;-70
2022/09/02 04:49:30;;;;;;;4.80;2.05;;;;;;;12.70;55.78;101555.34;5014659;28;20077;-70
2022/09/02 04:51:59;;;;;;;7.03;1.92;;;;;;;12.72;55.60;101552.47;5014536;28;20073;-70
2022/09/02 04:54:26;;;;;;;5.18;1.98;;;;;;;12.72;55.81;101552.47;5013333;28;20141;-70
2022/09/02 04:56:52;;;;;;;8.38;2.03;;;;;;;12.74;55.63;101562.13;5008703;28;20132;-70
2022/09/02 04:59:20;;;;;;;5.32;2.28;;;;;;;12.66;55.85;101556.66;5014381;28;20073;-70
2022/09/02 05:01:48;;;;;;;4.57;1.70;;;;;;;12.77;55.76;101555.59;5014247;28;20100;-69
2022/09/02 05:04:15;;;;;;;3.30;1.58;;;;;;;12.75;55.62;101558.41;5015093;28;20046;-69
2022/09/02 05:06:41;;;;;;;5.20;1.90;;;;;;;12.93;55.37;101563.78;5014128;28;20552;-70
2022/09/02 05:09:10;;;;;;;4.93;1.90;;;;;;;12.78;55.49;101558.13;5013463;28;20557;-70
2022/09/02 05:11:37;;;;;;;6.05;1.52;;;;;;;12.54;56.10;101571.31;5014442;28;20072;-70
2022/09/02 05:14:05;;;;;;;5.22;1.90;;;;;;;12.58;56.14;101564.63;5015348;28;20049;-70
2022/09/02 05:16:38;;;;;;;2.03;1.55;;;;;;;12.70;56.24;101560.72;5014456;28;20541;-70
2022/09/02 05:19:08;;;;;;;6.03;1.80;;;;;;;12.70;55.74;101568.78;5013653;28;20481;-69
2022/09/02 05:21:39;;;;;;;6.22;1.77;;;;;;;12.36;56.80;101569.44;5014778;28;20069;-69
2022/09/02 05:24:05;;;;;;;7.57;1.73;;;;;;;12.67;56.29;101571.78;5014853;28;20128;-69
2022/09/02 05:26:34;;;;;;;7.05;1.75;;;;;;;12.83;55.87;101576.50;5014233;28;20486;-70
2022/09/02 05:29:05;;;;;;;5.35;2.00;;;;;;;12.91;55.48;101579.28;5013667;28;20494;-70
2022/09/02 05:31:32;;;;;;;5.27;2.03;;;;;;;12.95;55.42;101582.50;5013766;28;20052;-69
2022/09/02 05:33:59;;;;;;;3.65;1.98;;;;;;;12.73;55.89;101568.50;5014192;28;20292;-70
2022/09/02 05:36:26;;;;;;;4.72;1.70;;;;;;;12.95;55.42;101571.75;5013217;28;20049;-70
2022/09/02 05:38:53;;;;;;;4.95;1.90;;;;;;;12.92;55.43;101580.13;5013563;28;20077;-70
2022/09/02 05:41:22;;;;;;;4.75;2.00;;;;;;;12.87;55.72;101583.28;5005704;28;20060;-70
2022/09/02 05:43:51;;;;;;;8.43;1.98;;;;;;;12.91;55.75;101573.06;5026855;28;20038;-70
2022/09/02 05:46:20;;;;;;;3.72;1.83;;;;;;;12.99;55.32;101578.50;5012919;28;20130;-69
2022/09/02 05:49:16;;;;;;;3.55;1.92;;;;;;;13.08;54.82;101572.19;5013345;28;20104;-70
2022/09/02 05:51:48;;;;;;;10.65;2.58;;;;;;;12.99;55.23;101573.13;5007716;28;20052;-69
2022/09/02 05:54:22;;;;;;;5.88;2.00;;;;;;;12.86;55.51;101570.81;5008387;28;20124;-69
2022/09/02 05:56:52;;;;;;;4.60;2.10;;;;;;;12.93;55.24;101571.88;5012883;28;20073;-69
2022/09/02 05:59:21;;;;;;;5.05;1.90;;;;;;;12.90;55.39;101571.34;5013278;28;20140;-70
2022/09/02 06:01:48;;;;;;;5.22;1.75;;;;;;;13.03;54.96;101575.34;5013156;28;20045;-68
2022/09/02 06:04:16;;;;;;;7.25;2.75;;;;;;;12.73;55.75;101568.50;5013098;28;20072;-68
2022/09/02 06:06:42;;;;;;;7.45;2.20;;;;;;;12.70;55.96;101571.47;5019515;28;20120;-68
2022/09/02 06:09:11;;;;;;;5.78;1.90;;;;;;;12.71;56.18;101566.94;5013901;28;20125;-68
2022/09/02 06:11:43;;;;;;;6.80;2.00;;;;;;;12.67;56.15;101570.94;5028739;28;20076;-69
2022/09/02 06:14:12;;;;;;;7.95;1.70;;;;;;;12.84;55.90;101573.66;5032910;28;20095;-68
2022/09/02 06:16:40;;;;;;;3.83;1.90;;;;;;;12.79;55.78;101573.25;5033217;28;20056;-69
2022/09/02 06:19:07;;;;;;;5.72;1.80;;;;;;;12.83;55.91;101576.50;5032917;28;20474;-70
2022/09/02 06:21:36;;;;;;;6.55;2.38;;;;;;;12.84;55.81;101579.06;5031567;28;20069;-69
2022/09/02 06:24:07;;;;;;;9.55;2.15;;;;;;;13.24;54.90;101574.16;5032605;28;20180;-69
2022/09/02 06:26:35;;;;;;;8.48;2.58;;;;;;;12.98;55.72;101572.28;5032041;28;20071;-69
2022/09/02 06:29:03;;;;;;;9.45;2.45;;;;;;;13.22;55.14;101573.47;5024411;28;20545;-69
2022/09/02 06:31:30;;;;;;;3.10;2.03;;;;;;;13.39;54.74;101582.50;5032514;28;20568;-69
2022/09/02 06:34:00;;;;;;;5.82;1.70;;;;;;;13.54;54.30;101578.25;5032754;28;20068;-70
2022/09/02 06:36:30;;;;;;;8.75;2.50;;;;;;;13.33;54.34;101576.75;5024353;28;20049;-70
2022/09/02 06:38:59;;;;;;;10.52;2.22;;;;;;;13.43;54.37;101571.28;5044918;28;20445;-70
2022/09/02 06:41:28;;;;;;;7.78;2.00;;;;;;;13.43;54.38;101578.50;5032662;28;20045;-70
2022/09/02 06:43:58;;;;;;;6.57;1.90;;;;;;;13.68;53.73;101574.13;5028182;28;20111;-70
2022/09/02 06:46:29;;;;;;;8.00;2.10;;;;;;;13.71;53.95;101571.09;5024028;28;20128;-70
2022/09/02 06:48:56;;;;;;;10.35;2.38;;;;;;;13.74;53.63;101577.03;5031897;28;20451;-70
2022/09/02 06:51:29;;;;;;;3.72;1.80;;;;;;;13.89;53.55;101576.44;5024440;28;20081;-70
2022/09/02 06:53:55;;;;;;;8.35;2.35;;;;;;;13.86;53.56;101574.91;5031919;28;20124;-69
2022/09/02 06:56:22;;;;;;;11.38;3.00;;;;;;;13.93;53.45;101570.56;5020017;28;20492;-70
2022/09/02 06:58:49;;;;;;;8.30;2.92;;;;;;;14.13;53.06;101570.31;5032189;28;20133;-70
2022/09/02 07:01:25;;;;;;;7.57;2.72;;;;;;;14.17;52.86;101571.66;5032022;28;20133;-70
2022/09/02 07:06:41;;;;;;;10.75;3.42;;;;;;;14.33;52.37;101569.03;5021548;28;20133;-70
2022/09/02 07:09:10;;;;;;;17.23;3.03;;;;;;;14.70;51.75;101573.16;5010578;28;20160;-70
2022/09/02 07:11:37;;;;;;;7.78;2.53;;;;;;;14.96;50.81;101573.88;5011004;28;20176;-70
2022/09/02 07:14:04;;;;;;;8.98;2.75;;;;;;;15.51;49.69;101583.16;5029716;28;20069;-70
2022/09/02 07:16:35;;;;;;;10.63;2.72;;;;;;;15.94;48.79;101583.72;5030829;28;20053;-70
2022/09/02 07:19:03;;;;;;;10.82;2.80;;;;;;;16.72;46.99;101584.72;5031625;28;20057;-70
2022/09/02 07:21:35;;;;;;;11.50;2.85;;;;;;;16.84;46.48;101583.25;5031370;28;20057;-70
2022/09/02 07:24:02;;;;;;;10.40;2.78;;;;;;;16.64;46.67;101585.59;5032009;28;20483;-69
2022/09/02 07:26:28;;;;;;;8.48;2.97;;;;;;;16.42;47.07;101577.25;5037407;28;20132;-70
2022/09/02 07:28:55;;;;;;;7.60;2.08;;;;;;;16.48;47.17;101574.84;5031092;28;20521;-69
2022/09/02 07:31:22;;;;;;;8.15;2.70;;;;;;;16.66;47.02;101576.28;5023411;28;20148;-71
2022/09/02 07:33:49;;;;;;;10.77;2.42;;;;;;;17.24;46.09;101581.25;5030627;28;20045;-71
2022/09/02 07:36:20;;;;;;;5.03;2.70;;;;;;;17.66;43.93;101586.13;5030306;28;20120;-71
2022/09/02 07:38:47;;;;;;;5.83;2.23;;;;;;;18.36;42.26;101579.34;5029200;28;20105;-71
2022/09/02 07:41:13;;;;;;;7.18;2.03;;;;;;;19.11;41.39;101582.66;5023133;28;20065;-71
2022/09/02 07:43:40;;;;;;;7.53;1.80;;;;;;;19.78;38.90;101584.00;5025939;28;20494;-71
2022/09/02 07:46:06;;;;;;;10.73;2.10;;;;;;;20.50;37.96;101585.41;5025616;28;20124;-71
2022/09/02 07:48:33;;;;;;;7.57;1.88;;;;;;;20.47;37.57;101577.66;5014589;28;20072;-71
2022/09/02 07:51:00;;;;;;;6.70;1.77;;;;;;;19.61;38.85;101583.44;5012401;28;20053;-71
2022/09/02 07:53:28;;;;;;;7.10;1.85;;;;;;;19.68;39.33;101587.09;5011262;28;20475;-71
2022/09/02 07:55:54;;;;;;;8.13;1.90;;;;;;;19.45;39.40;101584.59;5011081;28;20049;-70
2022/09/02 07:58:22;;;;;;;11.00;2.47;;;;;;;18.70;41.16;101589.56;5011181;28;20397;-71
2022/09/02 08:00:50;;;;;;;3.67;1.92;;;;;;;19.42;40.06;101585.00;5011167;28;20125;-71
2022/09/02 08:03:16;;;;;;;8.43;1.98;;;;;;;19.92;39.21;101583.88;5012112;28;20073;-72
2022/09/02 08:05:45;;;;;;;8.70;1.75;;;;;;;20.52;38.04;101581.41;5012765;28;20129;-71
2022/09/02 08:08:14;;;;;;;8.70;2.13;;;;;;;21.19;36.70;101585.13;5012343;28;20478;-72
2022/09/02 08:10:41;;;;;;;9.75;1.95;;;;;;;21.11;36.83;101579.88;5012084;28;20141;-72
2022/09/02 08:13:09;;;;;;;7.55;2.13;;;;;;;21.11;37.28;101577.13;5011068;28;20460;-72
2022/09/02 08:15:36;;;;;;;7.43;1.90;;;;;;;21.16;37.27;101580.09;5011618;28;20073;-72
2022/09/02 08:18:03;;;;;;;6.05;1.70;;;;;;;21.70;35.94;101583.59;5013869;28;20096;-71
2022/09/02 08:20:30;;;;;;;6.97;1.70;;;;;;;20.61;36.88;101576.63;5004390;28;20540;-71
2022/09/02 08:22:57;;;;;;;10.75;1.30;;;;;;;19.84;38.54;101580.50;5007231;28;20141;-71
2022/09/02 08:25:38;;;;;;;6.60;1.67;;;;;;;20.19;38.08;101575.84;5011883;28;20064;-71
2022/09/02 08:28:04;;;;;;;3.42;1.20;;;;;;;20.28;37.54;101571.91;5012217;28;20165;-71
2022/09/02 08:30:31;;;;;;;5.50;1.42;;;;;;;20.34;37.40;101570.22;5012249;28;20049;-71
2022/09/02 08:32:58;;;;;;;6.75;1.42;;;;;;;21.05;36.51;101575.22;5012848;28;20073;-71
2022/09/02 08:35:24;;;;;;;3.75;1.40;;;;;;;21.95;34.56;101572.84;5011730;28;20101;-71
2022/09/02 08:37:51;;;;;;;2.67;1.50;;;;;;;21.38;35.01;101570.63;5012066;28;20442;-72
2022/09/02 08:40:27;;;;;;;2.35;1.02;;;;;;;20.87;36.24;101576.69;5013682;28;20389;-72
2022/09/02 08:42:55;;;;;;;4.90;1.20;;;;;;;21.27;35.46;101568.53;5011877;28;20058;-72
2022/09/02 08:45:31;;;;;;;7.72;1.70;;;;;;;21.41;35.62;101573.97;5012081;28;20132;-71
2022/09/02 08:48:11;;;;;;;2.75;1.02;;;;;;;21.61;35.04;101569.34;5011167;28;20042;-72
2022/09/02 08:50:42;;;;;;;5.97;1.30;;;;;;;22.40;33.71;101570.13;5012590;28;20077;-72
2022/09/02 08:53:18;;;;;;;3.88;1.40;;;;;;;22.14;34.20;101571.09;5011536;28;20073;-71
2022/09/02 08:55:47;;;;;;;9.07;1.33;;;;;;;23.02;33.11;101576.72;5011362;28;20478;-72
2022/09/02 08:58:17;;;;;;;4.95;1.88;;;;;;;23.90;31.58;101564.72;5011470;28;20052;-72
2022/09/02 09:00:59;;;;;;;2.17;1.10;;;;;;;23.00;32.43;101570.59;5011153;28;20050;-72
2022/09/02 09:03:35;;;;;;;7.63;1.65;;;;;;;22.71;33.10;101559.25;5009734;28;20053;-71
2022/09/02 09:06:22;;;;;;;7.30;1.25;;;;;;;22.90;32.28;101568.34;5009448;28;20045;-71
2022/09/02 09:09:16;;;;;;;2.72;1.10;;;;;;;22.36;33.45;101564.28;5011484;28;20158;-71
2022/09/02 09:12:00;;;;;;;7.15;1.23;;;;;;;22.70;32.64;101556.72;5011778;28;20070;-71
2022/09/02 09:14:51;;;;;;;6.50;1.20;;;;;;;23.39;31.66;101552.19;5011025;28;20141;-71
2022/09/02 09:17:27;;;;;;;1.77;1.00;;;;;;;23.42;31.76;101543.50;5011363;28;20438;-72
2022/09/02 09:19:57;;;;;;;3.80;1.50;;;;;;;23.86;31.22;101549.81;5012391;28;20124;-72
2022/09/02 09:22:30;;;;;;;3.35;1.25;;;;;;;23.80;30.85;101545.25;5030576;28;20136;-71
2022/09/02 09:24:57;;;;;;;8.43;1.08;;;;;;;24.06;29.49;101546.84;5013698;28;20073;-72
2022/09/02 09:27:24;;;;;;;9.57;1.80;;;;;;;23.98;35.17;101535.09;5024858;28;20489;-72
2022/09/02 09:29:52;;;;;;;5.63;1.10;;;;;;;24.59;30.30;101535.97;5027841;28;20124;-70
2022/09/02 09:32:28;;;;;;;2.97;1.13;;;;;;;24.34;30.73;101532.53;5032584;28;20049;-70
2022/09/02 09:35:02;;;;;;;6.80;1.33;;;;;;;24.37;29.62;101532.03;5026983;28;20048;-70
2022/09/02 09:37:36;;;;;;;4.00;0.80;;;;;;;23.29;30.88;101538.16;5033097;28;20049;-71
2022/09/02 09:40:19;;;;;;;2.13;1.00;;;;;;;23.29;29.27;101536.25;5033134;28;20076;-70
2022/09/02 09:43:12;;;;;;;3.58;1.05;;;;;;;23.74;28.44;101527.78;5033570;28;20053;-70
2022/09/02 09:45:50;;;;;;;4.03;1.20;;;;;;;24.01;30.31;101528.31;5030168;28;20044;-70
2022/09/02 09:48:29;;;;;;;2.17;1.00;;;;;;;23.90;28.84;101524.47;5033874;28;20057;-70
2022/09/02 09:50:56;;;;;;;4.72;1.00;;;;;;;23.17;29.47;101521.66;5032583;28;20064;-71
2022/09/02 09:53:24;;;;;;;4.05;1.00;;;;;;;22.01;31.35;101523.66;5033304;28;20100;-70
2022/09/02 09:55:55;;;;;;;3.80;1.00;;;;;;;23.01;30.39;101512.06;5034535;28;20137;-70
2022/09/02 09:58:29;;;;;;;2.15;0.95;;;;;;;24.38;29.16;101517.28;5027140;28;20473;-71
2022/09/02 10:00:59;;;;;;;5.97;1.13;;;;;;;23.79;28.54;101516.19;5032065;28;20492;-71
2022/09/02 10:03:29;;;;;;;1.75;0.90;;;;;;;23.77;29.01;101521.03;5032834;28;20049;-70
2022/09/02 10:06:17;;;;;;;2.97;1.00;;;;;;;22.63;29.67;101520.38;5032014;28;20045;-71
2022/09/02 10:08:59;;;;;;;5.28;0.98;;;;;;;21.41;31.69;101512.03;5032913;28;20082;-71
2022/09/02 10:11:28;;;;;;;9.32;1.52;;;;;;;22.51;30.73;101512.03;5031769;28;20050;-70
2022/09/02 10:14:01;;;;;;;6.43;1.05;;;;;;;23.31;29.27;101505.94;5032957;28;20511;-70
2022/09/02 10:16:36;;;;;;;3.63;0.80;;;;;;;23.80;28.62;101515.09;5023732;28;20124;-70
2022/09/02 10:19:09;;;;;;;2.45;0.88;;;;;;;23.08;29.19;101510.09;5032392;28;20070;-70
2022/09/02 10:22:03;;;;;;;4.47;1.00;;;;;;;22.72;30.19;101506.22;5032729;28;20140;-70
2022/09/02 10:25:18;;;;;;;2.65;1.30;;;;;;;22.84;29.86;101505.47;5033854;28;20124;-70
2022/09/02 10:28:12;;;;;;;5.43;1.13;;;;;;;22.79;29.94;101504.25;5032545;28;20126;-71
2022/09/02 10:30:56;;;;;;;4.57;0.90;;;;;;;21.87;31.19;101502.88;5014194;28;20042;-70
2022/09/02 10:33:43;;;;;;;1.85;0.90;;;;;;;21.38;32.14;101507.00;5031730;28;20133;-70
2022/09/02 10:36:27;;;;;;;0.98;0.75;;;;;;;21.37;32.66;101499.88;5031967;28;20132;-70
2022/09/02 10:39:03;;;;;;;4.05;1.05;;;;;;;20.83;32.95;101490.84;5032055;28;20373;-70
2022/09/02 10:41:44;;;;;;;4.85;1.02;;;;;;;21.05;33.24;101493.38;5027894;28;20132;-70
2022/09/02 10:45:06;;;;;;;5.22;1.27;;;;;;;22.36;31.06;101490.47;5031375;28;20124;-72
2022/09/02 10:47:37;;;;;;;4.57;1.10;;;;;;;23.23;29.11;101491.47;5030053;28;20125;-70
2022/09/02 10:50:21;;;;;;;1.42;0.75;;;;;;;22.54;29.80;101498.78;5030174;28;20045;-70
2022/09/02 10:53:16;;;;;;;2.17;0.85;;;;;;;22.50;30.19;101488.50;5032149;28;20540;-71
2022/09/02 10:56:04;;;;;;;4.18;1.30;;;;;;;21.88;31.79;101490.09;5030826;28;20074;-71
2022/09/02 10:58:54;;;;;;;1.60;1.05;;;;;;;22.07;30.99;101489.13;5037539;28;20469;-70
2022/09/02 11:01:27;;;;;;;1.75;1.00;;;;;;;21.55;32.13;101496.47;5031293;28;20045;-71
2022/09/02 11:04:17;;;;;;;7.50;1.17;;;;;;;21.09;33.06;101487.28;5032307;28;20068;-70
2022/09/02 11:06:50;;;;;;;2.42;0.93;;;;;;;20.70;33.21;101484.56;5031567;28;20100;-71
2022/09/02 11:09:49;;;;;;;4.95;0.90;;;;;;;20.22;32.21;101484.69;5030977;28;20488;-69
2022/09/02 11:12:31;;;;;;;4.50;0.90;;;;;;;20.69;32.15;101478.28;5020896;28;20079;-69
2022/09/02 11:15:19;;;;;;;5.35;1.00;;;;;;;20.25;32.98;101476.94;4991660;28;20451;-68
2022/09/02 11:17:59;;;;;;;1.50;0.93;;;;;;;21.16;32.20;101468.22;4984261;28;20047;-70
2022/09/02 11:20:37;;;;;;;4.70;1.10;;;;;;;20.61;32.26;101478.50;5002300;28;20046;-69
2022/09/02 11:23:29;;;;;;;1.98;0.98;;;;;;;20.44;32.42;101462.53;4992879;28;20050;-70
2022/09/02 11:26:09;;;;;;;1.75;1.00;;;;;;;20.38;32.25;101474.22;4992008;28;20042;-72
2022/09/02 11:29:13;;;;;;;1.67;0.82;;;;;;;20.18;31.76;101474.19;4992203;28;20129;-71
2022/09/02 11:31:43;;;;;;;4.13;1.20;;;;;;;20.26;31.51;101477.78;4981863;28;20046;-69
2022/09/02 11:34:18;;;;;;;4.07;1.73;;;;;;;20.46;31.21;101475.13;4994255;28;20041;-71
2022/09/02 11:36:45;;;;;;;1.75;1.25;;;;;;;20.13;32.21;101473.97;5011926;28;20129;-71
2022/09/02 11:39:19;;;;;;;3.50;1.40;;;;;;;20.03;32.48;101475.41;5006046;28;20066;-72
2022/09/02 11:41:58;;;;;;;4.82;1.58;;;;;;;20.27;32.17;101469.38;5011769;28;20499;-70
2022/09/02 11:44:55;;;;;;;6.70;1.58;;;;;;;20.22;31.86;101468.34;5011121;28;20045;-71
2022/09/02 11:47:26;;;;;;;3.03;1.38;;;;;;;20.02;32.68;101468.28;5011956;28;20112;-71
2022/09/02 11:50:20;;;;;;;4.80;1.17;;;;;;;20.36;31.59;101470.03;5011760;28;20156;-70